Potsdam, NY

44° 42' 44"N, 74° 57' 12"W, Elevation 460 ft.
Eastern Time

Hourly observations for the last 72 hours

Date Time Temperature (°F) Humi-
dity

(%)
Wind
(mph)
Pressure Rain (in) Sun
(W/m2)
ET
(in)
Air Dew 6 Hour 1 Hr 3 Hr 6 Hr Day
Alt
(in)
Sea
Level

(mb)
Max Min
17 19:00 69.9 63.8 81 Calm 29.93 1013.6 0.00 46 0.125
17 18:00 74.9 62.8 66 WNW 0 G 1 29.95 1014.1 0.00 171 0.123
17 17:00 75.1 63.0 66 Calm 29.95 1014.4 0.00 227 0.117
17 16:00 78.7 58.5 50 W 0 G 2 29.97 1015.0 0.00 613 0.108
17 15:00 76.8 60.9 58 SSE 0 G 3 29.99 1015.5 0.00 489 0.093
17 14:00 77.5 61.6 77.6 58.3 58 SSE 0 G 4 30.01 1016.4 0.00 482 0.077
17 13:00 75.6 59.8 58 WNW 1 G 7 30.04 1017.2 0.00 831 0.057
17 12:00 74.5 61.1 63 WNW 1 G 7 30.05 1017.7 0.00 756 0.040
17 11:00 71.3 61.8 72 W 0 G 10 30.07 1018.2 0.00 575 0.023
17 10:00 67.0 62.3 85 W 1 G 5 30.08 1018.6 0.00 529 0.009
17 09:00 63.6 60.0 88 SW 1 G 3 30.08 1018.8 0.00 120 0.003
17 08:00 58.3 56.6 58.3 53.1 94 S 1 G 6 30.08 1018.7 0.00 60 0.001
17 07:00 54.9 53.8 96 S 1 G 5 30.07 1018.3 0.00 33 0.000
17 06:00 53.8 52.7 96 S 3 G 6 30.06 1018.1 0.00 0 0.000
17 05:00 54.0 52.6 95 SSE 0 G 5 30.06 1017.9 0.00 0 0.000
17 04:00 53.5 52.1 95 SSE 1 G 4 30.06 1017.9 0.00 0 0.000
17 03:00 53.3 51.6 94 SSE 1 G 5 30.07 1018.2 0.00 0 0.000
17 02:00 53.7 52.0 61.6 53.2 94 S 1 G 5 30.07 1018.4 0.00 0 0.000
17 01:00 54.0 52.0 93 S 0 G 5 30.07 1018.5 0.00 0 0.000
17 00:00 54.0 52.6 95 S 1 G 5 30.08 1018.5 0.00 0 0.000
16 23:00 54.9 53.2 94 S 1 G 2 30.06 1018.1 0.00 0 0.142
16 22:00 55.5 53.8 94 WNW 0 G 3 30.06 1018.0 0.00 0 0.142
16 21:00 57.0 54.4 91 Calm 30.07 1018.2 0.00 0 0.142
16 20:00 61.6 56.1 74.5 61.6 82 Calm 30.05 1017.5 0.00 0 0.142
16 19:00 68.8 58.6 70 Calm 30.04 1017.4 0.00 39 0.141
16 18:00 71.4 58.2 63 NW 0 G 9 30.04 1017.4 0.00 295 0.136
16 17:00 72.4 57.3 59 W 1 G 8 30.04 1017.2 0.00 366 0.126
16 16:00 73.0 54.4 52 NW 2 G 13 30.04 1017.3 0.00 652 0.114
16 15:00 74.5 58.3 57 N 3 G 10 30.05 1017.6 0.00 754 0.096
16 14:00 72.7 57.1 72.7 57.7 58 WNW 2 G 11 30.06 1018.0 0.00 807 0.077
16 13:00 71.0 57.8 63 NNW 0 G 6 30.07 1018.2 0.00 800 0.057
16 12:00 70.3 54.8 58 NNE 1 G 7 30.07 1018.4 0.00 819 0.040
16 11:00 68.9 58.7 70 NNE 1 G 5 30.08 1018.6 0.00 717 0.023
16 10:00 64.9 57.9 78 NNE 1 G 3 30.07 1018.4 0.00 571 0.009
16 09:00 59.7 58.6 96 N 0 G 2 30.06 1018.1 0.00 83 0.003
16 08:00 57.7 57.1 61.6 56.9 98 N 1 G 4 30.04 1017.3 0.00 49 0.001
16 07:00 57.4 56.8 98 N 0 G 1 30.03 1016.9 0.00 28 0.000
16 06:00 59.0 58.4 98 N 0 G 2 30.02 1016.8 0.00 0 0.000
16 05:00 61.0 60.4 98 NNW 1 G 5 29.99 1015.6 0.00 0 0.000
16 04:00 60.8 60.2 98 SSW 0 G 1 29.97 1014.9 0.00 0 0.000
16 03:00 60.5 59.9 98 Calm 29.94 1014.0 0.00 0 0.000
16 02:00 59.6 59.0 64.3 59.5 98 SSW 0 G 1 29.93 1013.5 0.00 0 0.000
16 01:00 60.8 60.2 98 Calm 29.92 1013.2 0.00 0 0.000
16 00:00 60.7 60.1 98 Calm 29.91 1012.9 0.19 0 0.000
15 23:00 60.2 59.3 97 Calm 29.89 1012.1 0.19 0 0.090
15 22:00 61.9 61.0 97 Calm 29.87 1011.7 0.19 0 0.090
15 21:00 63.1 61.9 96 S 0 G 2 29.86 1011.3 0.19 0 0.090
15 20:00 64.3 62.8 80.0 64.3 95 SSE 1 G 4 29.86 1011.2 0.19 0.19 0.19 0 0.090
15 19:00 66.6 64.2 92 SSE 0 G 2 29.84 1010.6 0.19 42 0.089
15 18:00 66.1 64.6 95 SSE 1 G 7 29.84 1010.7 0.19 0.19 374 0.085
15 17:00 73.8 66.5 78 NNW 5 G 14 29.82 1010.0 0.00 0 0.083
15 16:00 78.9 67.0 67 W 1 G 5 29.81 1009.4 0.00 172 0.077
15 15:00 78.1 67.9 71 W 1 G 7 29.82 1009.9 0.00 251 0.069
15 14:00 79.1 66.3 80.3 66.2 65 WNW 0 G 7 29.83 1010.1 0.00 436 0.060
15 13:00 78.1 69.5 75 WNW 2 G 7 29.83 1010.3 0.00 895 0.042
15 12:00 75.7 68.7 79 S 0 G 9 29.84 1010.4 0.00 185 0.030
15 11:00 74.7 69.9 85 W 1 G 8 29.84 1010.6 0.00 719 0.018
15 10:00 71.0 66.6 86 SW 1 G 9 29.85 1010.8 0.00 241 0.010
15 09:00 67.1 65.3 94 S 0 G 4 29.84 1010.7 0.00 125 0.005
15 08:00 67.5 64.1 67.6 61.3 89 W 0 G 3 29.85 1010.7 0.00 28 0.004
15 07:00 64.6 61.9 91 S 1 G 8 29.84 1010.7 0.00 32 0.003
15 06:00 61.3 59.6 94 Calm 29.84 1010.6 0.00 0 0.003
15 05:00 62.1 59.7 92 Calm 29.85 1010.8 0.00 0 0.003
15 04:00 64.2 60.3 87 NNW 0 G 2 29.85 1010.8 0.00 0 0.003
15 03:00 66.7 60.3 80 SSE 2 G 8 29.85 1011.0 0.00 0 0.002
15 02:00 65.6 60.0 69.4 60.7 82 S 2 G 7 29.86 1011.3 0.00 0 0.001
15 01:00 60.8 59.1 94 SSE 1 G 3 29.87 1011.6 0.00 0 0.000
15 00:00 61.4 60.0 95 SSE 1 G 3 29.88 1011.8 0.00 0 0.000
14 23:00 61.6 60.2 95 SW 0 G 1 29.89 1012.1 0.00 0 0.141
14 22:00 62.7 60.9 94 W 0 G 1 29.89 1012.3 0.00 0 0.141
14 21:00 65.0 62.6 92 Calm 29.90 1012.5 0.00 0 0.141
14 20:00 69.4 63.3 79.9 69.4 81 Calm 29.89 1012.2 0.00 5 0.141

Data generated by WxSolution Version 1.9.0.6, Build 2017.01.14.